createdAt,value
2023-03-19T00:00:29.927Z,12.33
2023-03-19T00:02:56.938Z,11.77
2023-03-19T00:05:23.873Z,11.20
2023-03-19T00:07:50.714Z,12.80
2023-03-19T00:10:17.853Z,12.93
2023-03-19T00:12:44.712Z,12.93
2023-03-19T00:15:14.654Z,11.50
2023-03-19T00:17:44.970Z,12.63
2023-03-19T00:20:13.155Z,11.27
2023-03-19T00:22:40.427Z,11.77
2023-03-19T00:25:08.624Z,10.43
2023-03-19T00:27:37.583Z,11.23
2023-03-19T00:30:07.016Z,7.95
2023-03-19T00:32:35.887Z,11.57
2023-03-19T00:35:04.205Z,10.90
2023-03-19T00:37:31.059Z,11.17
2023-03-19T00:39:58.074Z,10.90
2023-03-19T00:42:25.860Z,12.80
2023-03-19T00:44:52.704Z,11.57
2023-03-19T00:47:19.546Z,11.53
2023-03-19T00:49:46.401Z,10.37
2023-03-19T00:52:13.534Z,13.33
2023-03-19T00:54:40.687Z,11.83
2023-03-19T00:57:08.142Z,10.43
2023-03-19T00:59:35.056Z,9.77
2023-03-19T01:02:02.744Z,9.17
2023-03-19T01:04:29.701Z,8.87
2023-03-19T01:09:26.865Z,8.20
2023-03-19T01:11:53.777Z,8.20
2023-03-19T01:14:21.357Z,7.37
2023-03-19T01:16:48.307Z,7.70
2023-03-19T01:19:16.585Z,8.57
2023-03-19T01:21:46.670Z,8.30
2023-03-19T01:24:17.880Z,7.63
2023-03-19T01:26:47.625Z,8.07
2023-03-19T01:29:25.305Z,7.73
2023-03-19T01:31:52.544Z,7.87
2023-03-19T01:34:48.575Z,7.47
2023-03-19T01:37:17.121Z,7.90
2023-03-19T01:39:45.651Z,7.97
2023-03-19T01:42:14.829Z,8.40
2023-03-19T01:45:24.871Z,6.23
2023-03-19T01:48:31.398Z,8.13
2023-03-19T01:51:13.975Z,8.70
2023-03-19T01:53:47.970Z,9.23
2023-03-19T01:56:26.296Z,9.77
2023-03-19T01:59:12.314Z,14.20
2023-03-19T02:02:26.667Z,16.80
2023-03-19T02:05:05.662Z,16.98
2023-03-19T02:07:35.227Z,16.97
2023-03-19T02:12:30.627Z,16.33
2023-03-19T02:14:57.453Z,15.40
2023-03-19T02:17:24.487Z,11.13
2023-03-19T02:20:18.425Z,11.17
2023-03-19T02:23:11.904Z,10.77
2023-03-19T02:25:46.407Z,10.07
2023-03-19T02:28:19.087Z,11.40
2023-03-19T02:30:52.245Z,12.10
2023-03-19T02:33:19.856Z,14.60
2023-03-19T02:35:50.640Z,15.07
2023-03-19T02:38:22.503Z,13.47
2023-03-19T02:40:58.444Z,14.03
2023-03-19T03:37:09.821Z,12.53
2023-03-19T03:39:37.813Z,11.60
2023-03-19T03:42:05.363Z,12.03
2023-03-19T03:44:33.540Z,11.48
2023-03-19T03:47:00.655Z,11.27
2023-03-19T03:49:28.260Z,10.47
2023-03-19T03:51:56.260Z,10.30
2023-03-19T03:54:23.422Z,10.70
2023-03-19T05:17:05.827Z,16.63
2023-03-19T05:19:45.639Z,15.27
2023-03-19T05:22:12.562Z,16.63
2023-03-19T05:24:40.516Z,15.23
2023-03-19T05:27:08.543Z,15.67
2023-03-19T05:29:45.123Z,13.37
2023-03-19T05:32:40.960Z,13.43
2023-03-19T05:35:14.658Z,14.90
2023-03-19T05:37:42.437Z,13.17
2023-03-19T05:40:10.330Z,14.57
2023-03-19T05:42:38.134Z,16.03
2023-03-19T06:13:15.311Z,13.40
2023-03-19T06:16:05.342Z,11.43
2023-03-19T06:18:36.686Z,12.13
2023-03-19T06:21:08.687Z,11.60
2023-03-19T06:23:36.161Z,10.23
2023-03-19T06:26:06.256Z,11.52
2023-03-19T06:28:41.676Z,12.57
2023-03-19T06:31:08.975Z,12.27
2023-03-19T06:33:51.101Z,11.07
2023-03-19T06:36:18.156Z,10.33
2023-03-19T06:38:45.404Z,9.33
2023-03-19T06:41:12.382Z,12.23
2023-03-19T06:43:42.134Z,13.27
2023-03-19T07:15:13.624Z,16.97
2023-03-19T07:17:40.844Z,15.47
2023-03-19T07:20:08.399Z,18.77
2023-03-19T07:22:35.578Z,17.53
2023-03-19T07:25:02.552Z,15.00
2023-03-19T07:27:31.341Z,13.43
2023-03-19T07:29:58.252Z,12.50
2023-03-19T07:32:25.339Z,11.73
2023-03-19T07:34:52.230Z,12.13
2023-03-19T07:37:21.944Z,11.10
2023-03-19T07:39:49.330Z,12.03
2023-03-19T07:42:16.382Z,11.23
2023-03-19T07:44:43.453Z,11.70
2023-03-19T07:47:26.347Z,12.73
2023-03-19T07:49:55.910Z,11.70
2023-03-19T07:52:22.968Z,11.30
2023-03-19T07:54:50.756Z,11.53
2023-03-19T07:57:17.800Z,10.27
2023-03-19T08:17:06.074Z,11.20
2023-03-19T08:19:33.133Z,10.30
2023-03-19T08:22:00.074Z,10.47
2023-03-19T08:24:27.034Z,10.43
2023-03-19T08:26:53.953Z,10.67
2023-03-19T08:29:21.199Z,9.27
2023-03-19T08:31:48.180Z,8.53
2023-03-19T08:34:15.387Z,8.80
2023-03-19T08:36:42.291Z,9.90
2023-03-19T08:39:09.362Z,9.00
2023-03-19T08:41:36.423Z,9.93
2023-03-19T08:44:03.896Z,9.93
2023-03-19T08:46:31.871Z,10.00
2023-03-19T08:48:58.809Z,8.77
2023-03-19T08:51:26.541Z,8.73
2023-03-19T08:53:54.297Z,9.93
2023-03-19T08:56:21.345Z,8.93
2023-03-19T08:58:48.205Z,8.80
2023-03-19T09:01:15.756Z,8.30
2023-03-19T09:03:45.620Z,9.97
2023-03-19T09:06:14.723Z,8.73
2023-03-19T09:08:42.465Z,8.98
2023-03-19T09:11:11.088Z,8.03
2023-03-19T09:13:38.076Z,7.30
2023-03-19T09:16:05.910Z,6.40
2023-03-19T09:18:33.964Z,5.57
2023-03-19T09:21:01.103Z,7.40
2023-03-19T09:23:28.694Z,7.10
2023-03-19T09:25:55.921Z,7.30
2023-03-19T09:28:23.146Z,7.97
2023-03-19T09:30:51.869Z,8.57
2023-03-19T09:33:20.558Z,8.52
2023-03-19T09:35:52.808Z,8.15
2023-03-19T09:38:21.900Z,7.60
2023-03-19T09:41:11.010Z,8.38
2023-03-19T09:43:59.177Z,8.07
2023-03-19T09:46:33.988Z,7.65
2023-03-19T09:49:12.948Z,7.38
2023-03-19T09:51:43.907Z,8.15
2023-03-19T09:54:27.614Z,8.25
2023-03-19T09:56:55.012Z,8.68
2023-03-19T09:59:27.535Z,9.05
2023-03-19T10:02:18.347Z,7.97
2023-03-19T10:04:59.291Z,6.93
2023-03-19T10:07:44.436Z,6.28
2023-03-19T10:10:26.307Z,6.35
2023-03-19T10:12:59.191Z,5.90
2023-03-19T10:15:33.914Z,6.20
2023-03-19T10:18:07.387Z,6.82
2023-03-19T10:20:58.128Z,6.70
2023-03-19T10:23:27.884Z,6.15
2023-03-19T10:25:58.721Z,6.00
2023-03-19T10:28:28.248Z,5.00
2023-03-19T10:31:10.215Z,5.55
2023-03-19T10:33:46.149Z,5.90
2023-03-19T10:36:16.109Z,5.93
2023-03-19T10:38:44.354Z,5.90
2023-03-19T10:41:28.446Z,5.40
2023-03-19T10:44:00.102Z,5.10
2023-03-19T10:46:27.100Z,5.80
2023-03-19T10:48:54.388Z,6.30
2023-03-19T10:51:27.172Z,4.93
2023-03-19T10:53:57.958Z,4.70
2023-03-19T10:56:27.491Z,4.90
2023-03-19T10:59:07.374Z,5.05
2023-03-19T11:01:39.512Z,5.72
2023-03-19T11:04:19.736Z,5.28
2023-03-19T11:06:55.946Z,5.10
2023-03-19T11:09:38.341Z,4.88
2023-03-19T11:12:23.179Z,4.65
2023-03-19T11:14:54.550Z,4.80
2023-03-19T11:17:39.902Z,5.18
2023-03-19T11:20:16.249Z,5.18
2023-03-19T11:22:43.186Z,5.07
2023-03-19T11:25:25.150Z,5.05
2023-03-19T11:28:02.394Z,4.65
2023-03-19T11:31:10.983Z,5.32
2023-03-19T11:33:53.295Z,4.32
2023-03-19T11:36:34.013Z,4.30
2023-03-19T11:39:36.194Z,4.10
2023-03-19T11:42:18.019Z,5.43
2023-03-19T11:45:12.526Z,5.32
2023-03-19T11:47:58.015Z,6.50
2023-03-19T11:50:51.053Z,4.68
2023-03-19T11:53:29.894Z,5.13
2023-03-19T11:56:19.783Z,4.85
2023-03-19T11:58:57.782Z,4.88
2023-03-19T12:01:55.130Z,4.88
2023-03-19T12:04:31.050Z,4.55
2023-03-19T12:07:02.550Z,4.68
2023-03-19T12:09:35.405Z,5.07
2023-03-19T12:12:27.104Z,4.55
2023-03-19T12:15:18.979Z,4.13
2023-03-19T12:17:48.873Z,5.10
2023-03-19T12:20:39.020Z,4.63
2023-03-19T12:23:07.640Z,4.95
2023-03-19T12:25:46.443Z,4.55
2023-03-19T12:28:42.459Z,4.13
2023-03-19T12:31:27.987Z,4.85
2023-03-19T12:34:03.999Z,3.45
2023-03-19T12:36:37.225Z,4.00
2023-03-19T12:39:11.656Z,4.00
2023-03-19T12:41:43.318Z,3.85
2023-03-19T12:44:19.208Z,4.03
2023-03-19T12:46:56.614Z,3.75
2023-03-19T12:49:31.803Z,4.13
2023-03-19T12:52:04.333Z,3.75
2023-03-19T12:54:41.907Z,4.30
2023-03-19T12:57:30.084Z,3.67
2023-03-19T13:00:12.474Z,3.28
2023-03-19T13:02:54.553Z,4.05
2023-03-19T13:05:40.607Z,3.20
2023-03-19T13:08:22.249Z,3.75
2023-03-19T13:10:50.751Z,3.60
2023-03-19T13:13:20.828Z,3.70
2023-03-19T13:15:49.819Z,4.00
2023-03-19T13:18:35.670Z,4.13
2023-03-19T13:21:14.376Z,3.10
2023-03-19T13:23:43.158Z,4.13
2023-03-19T13:26:13.928Z,3.20
2023-03-19T13:29:08.542Z,3.35
2023-03-19T13:31:37.697Z,3.35
2023-03-19T13:34:14.953Z,3.60
2023-03-19T13:36:42.295Z,2.65
2023-03-19T13:39:21.741Z,2.83
2023-03-19T13:41:52.112Z,3.47
2023-03-19T13:44:21.882Z,2.63
2023-03-19T13:46:50.092Z,2.72
2023-03-19T13:49:19.689Z,2.60
2023-03-19T13:51:50.816Z,2.50
2023-03-19T13:54:23.262Z,2.40
2023-03-19T13:56:56.233Z,3.47
2023-03-19T13:59:27.184Z,2.63
2023-03-19T14:01:54.822Z,2.60
2023-03-19T14:04:24.674Z,2.80
2023-03-19T14:07:17.919Z,2.70
2023-03-19T14:09:49.929Z,2.70
2023-03-19T14:12:20.690Z,2.97
2023-03-19T14:14:54.871Z,2.58
2023-03-19T14:17:36.615Z,2.85
2023-03-19T14:20:12.540Z,2.10
2023-03-19T14:22:41.646Z,2.80
2023-03-19T14:25:19.753Z,2.47
2023-03-19T14:27:59.546Z,2.70
2023-03-19T14:30:51.503Z,2.42
2023-03-19T14:33:46.957Z,1.90
2023-03-19T14:36:21.418Z,2.78
2023-03-19T14:38:57.226Z,2.67
2023-03-19T14:41:27.389Z,2.78
2023-03-19T14:44:18.750Z,3.67
2023-03-19T14:46:48.292Z,4.13
2023-03-19T14:49:40.984Z,3.35
2023-03-19T14:52:21.613Z,3.08
2023-03-19T14:54:54.968Z,3.03
2023-03-19T14:57:27.058Z,2.75
2023-03-19T14:59:55.308Z,2.50
2023-03-19T15:02:43.888Z,2.67
2023-03-19T15:05:26.104Z,7.68
2023-03-19T15:07:56.345Z,5.28
2023-03-19T15:10:30.171Z,3.10
2023-03-19T15:13:19.390Z,3.10
2023-03-19T15:16:04.414Z,3.83
2023-03-19T15:18:31.490Z,14.82
2023-03-19T15:20:58.969Z,4.18
2023-03-19T15:23:28.725Z,4.07
2023-03-19T15:26:00.423Z,4.80
2023-03-19T15:28:31.599Z,2.75
2023-03-19T15:31:14.117Z,3.03
2023-03-19T15:33:46.889Z,4.30
2023-03-19T15:36:20.167Z,3.30
2023-03-19T15:38:57.261Z,2.97
2023-03-19T15:41:31.207Z,3.50
2023-03-19T15:43:59.824Z,3.55
2023-03-19T15:46:33.537Z,4.15
2023-03-19T15:49:10.725Z,3.47
2023-03-19T15:51:38.704Z,3.55
2023-03-19T15:54:06.518Z,3.90
2023-03-19T15:56:33.718Z,4.15
2023-03-19T15:59:01.494Z,3.40
2023-03-19T16:01:28.855Z,3.60
2023-03-19T16:04:00.240Z,3.83
2023-03-19T16:06:32.785Z,5.57
2023-03-19T16:09:24.505Z,8.60
2023-03-19T16:11:52.239Z,10.02
2023-03-19T16:14:31.535Z,5.88
2023-03-19T16:17:10.669Z,7.07
2023-03-19T16:19:39.973Z,6.32
2023-03-19T16:22:16.238Z,6.63
2023-03-19T16:24:46.203Z,8.13
2023-03-19T16:27:17.014Z,6.43
2023-03-19T16:29:47.443Z,6.80
2023-03-19T16:32:28.795Z,6.47
2023-03-19T16:35:05.375Z,6.43
2023-03-19T16:37:40.936Z,7.20
2023-03-19T16:40:14.109Z,6.50
2023-03-19T16:42:41.100Z,6.18
2023-03-19T16:45:17.357Z,6.60
2023-03-19T16:47:47.130Z,7.57
2023-03-19T16:50:15.515Z,8.73
2023-03-19T16:52:45.249Z,8.35
2023-03-19T16:55:32.451Z,9.55
2023-03-19T16:58:02.081Z,20.52
2023-03-19T17:00:32.121Z,9.75
2023-03-19T17:03:00.222Z,9.63
2023-03-19T17:05:28.794Z,12.07
2023-03-19T17:07:56.287Z,11.63
2023-03-19T17:10:26.865Z,16.65
2023-03-19T17:12:56.326Z,11.15
2023-03-19T17:15:35.467Z,11.95
2023-03-19T17:20:34.932Z,12.82
2023-03-19T17:23:02.238Z,12.85
2023-03-19T17:25:29.393Z,14.32
2023-03-19T17:27:56.397Z,13.70
2023-03-19T17:30:23.546Z,11.93
2023-03-19T17:32:51.876Z,13.80
2023-03-19T17:35:21.892Z,11.50
2023-03-19T17:37:50.783Z,11.90
2023-03-19T17:40:18.719Z,12.18
2023-03-19T17:42:46.094Z,12.50
2023-03-19T17:45:17.189Z,11.45
2023-03-19T17:47:48.826Z,12.93
2023-03-19T17:50:22.313Z,13.93
2023-03-19T17:52:51.323Z,17.67
2023-03-19T17:55:23.382Z,14.13
2023-03-19T17:57:51.481Z,12.73
2023-03-19T18:00:20.844Z,14.40
2023-03-19T18:02:51.172Z,45.67
2023-03-19T18:05:24.114Z,12.80
2023-03-19T18:07:55.132Z,13.10
2023-03-19T18:10:27.609Z,13.35
2023-03-19T18:12:55.150Z,11.63
2023-03-19T18:15:24.145Z,12.77
2023-03-19T18:17:59.384Z,12.27
2023-03-19T18:20:34.097Z,10.40
2023-03-19T18:23:01.395Z,10.73
2023-03-19T18:25:28.824Z,13.43
2023-03-19T18:27:55.975Z,10.33
2023-03-19T18:30:24.085Z,12.67
2023-03-19T18:32:56.698Z,12.40
2023-03-19T18:35:32.459Z,10.68
2023-03-19T18:38:00.440Z,11.30
2023-03-19T18:40:35.996Z,11.97
2023-03-19T18:43:03.087Z,11.10
2023-03-19T18:45:31.335Z,11.82
2023-03-19T18:47:58.274Z,12.67
2023-03-19T18:50:29.720Z,9.40
2023-03-19T18:52:57.120Z,11.00
2023-03-19T18:55:29.402Z,10.93
2023-03-19T18:58:00.709Z,9.55
2023-03-19T19:00:32.369Z,10.97
2023-03-19T19:03:00.430Z,10.80
2023-03-19T19:05:29.774Z,10.97
2023-03-19T19:10:25.774Z,11.77
2023-03-19T19:12:55.358Z,11.97
2023-03-19T19:15:34.976Z,12.43
2023-03-19T19:18:14.612Z,13.23
2023-03-19T19:20:41.531Z,10.63
2023-03-19T19:23:09.995Z,9.17
2023-03-19T19:25:38.499Z,12.18
2023-03-19T19:28:17.958Z,15.73
2023-03-19T19:30:45.535Z,7.83
2023-03-19T19:33:19.588Z,10.33
2023-03-19T19:35:46.743Z,16.17
2023-03-19T19:38:13.792Z,16.30
2023-03-19T19:40:43.610Z,18.67
2023-03-19T19:43:31.348Z,25.17
2023-03-19T19:45:59.217Z,25.23
2023-03-19T19:48:28.645Z,24.97
2023-03-19T19:53:25.401Z,28.50
2023-03-19T19:58:24.440Z,20.27
2023-03-19T20:01:02.894Z,33.37
2023-03-19T20:03:33.282Z,24.93
2023-03-19T20:06:04.188Z,30.75
2023-03-19T20:08:31.459Z,32.00
2023-03-19T20:10:58.445Z,40.97
2023-03-19T20:13:34.288Z,39.60
2023-03-19T20:16:02.865Z,38.40
2023-03-19T20:18:35.719Z,37.88
2023-03-19T20:21:04.361Z,36.70
2023-03-19T20:23:31.528Z,38.55
2023-03-19T20:25:58.676Z,40.47
2023-03-19T20:28:32.595Z,38.80
2023-03-19T20:31:00.945Z,38.27
2023-03-19T20:33:28.888Z,68.85
2023-03-19T20:35:57.923Z,103.27
2023-03-19T20:38:24.988Z,92.90
2023-03-19T20:40:54.703Z,58.43
2023-03-19T20:43:29.204Z,55.10
2023-03-19T20:45:57.901Z,57.87
2023-03-19T20:48:26.520Z,61.20
2023-03-19T20:50:54.841Z,67.57
2023-03-19T20:53:25.226Z,77.87
2023-03-19T20:55:52.435Z,85.27
2023-03-19T20:58:29.834Z,77.83
2023-03-19T21:00:58.053Z,74.80
2023-03-19T21:03:32.184Z,74.90
2023-03-19T21:06:02.083Z,66.07
2023-03-19T21:08:32.552Z,63.17
2023-03-19T21:11:00.523Z,67.57
2023-03-19T21:13:27.895Z,73.27
2023-03-19T21:15:54.901Z,71.80
2023-03-19T21:18:22.092Z,72.03
2023-03-19T21:20:57.142Z,60.27
2023-03-19T21:23:27.253Z,66.50
2023-03-19T21:25:54.714Z,38.77
2023-03-19T21:28:28.301Z,23.07
2023-03-19T21:30:55.422Z,30.63
2023-03-19T21:33:27.251Z,37.13
2023-03-19T21:35:55.759Z,50.93
2023-03-19T21:38:22.890Z,42.85
2023-03-19T21:40:52.128Z,31.57
2023-03-19T21:43:26.279Z,23.23
2023-03-19T21:45:54.141Z,36.93
2023-03-19T21:48:31.362Z,32.73
2023-03-19T21:50:59.567Z,30.93
2023-03-19T21:53:27.137Z,32.70
2023-03-19T21:55:59.904Z,26.27
2023-03-19T21:58:35.557Z,29.93
2023-03-19T22:01:05.805Z,24.97
2023-03-19T22:03:34.443Z,24.07
2023-03-19T22:06:01.338Z,30.63
2023-03-19T22:08:28.181Z,24.83
2023-03-19T22:11:01.465Z,14.13
2023-03-19T22:13:30.724Z,23.43
2023-03-19T22:16:01.924Z,25.52
2023-03-19T22:18:30.202Z,23.77
2023-03-19T22:20:57.037Z,35.37
2023-03-19T22:23:23.869Z,19.40
2023-03-19T22:25:51.696Z,17.07
2023-03-19T22:28:30.643Z,16.03
2023-03-19T22:30:57.957Z,20.30
2023-03-19T22:33:27.168Z,25.27
2023-03-19T22:35:54.414Z,31.60
2023-03-19T22:38:23.128Z,36.83
2023-03-19T22:40:55.737Z,32.72
2023-03-19T22:43:29.099Z,27.33
2023-03-19T22:46:01.039Z,29.03
2023-03-19T22:48:28.584Z,32.70
2023-03-19T22:50:55.690Z,31.40
2023-03-19T22:53:27.356Z,30.87
2023-03-19T22:55:54.612Z,32.87
2023-03-19T22:58:21.762Z,37.60
2023-03-19T23:00:50.889Z,31.57
2023-03-19T23:03:28.664Z,34.20
2023-03-19T23:05:59.472Z,30.73
2023-03-19T23:08:27.334Z,31.37
2023-03-19T23:10:54.483Z,30.23
2023-03-19T23:13:25.204Z,33.33
2023-03-19T23:15:56.874Z,36.63
2023-03-19T23:18:29.651Z,40.33
2023-03-19T23:20:57.036Z,41.40
2023-03-19T23:23:24.483Z,31.97
2023-03-19T23:25:51.515Z,30.30
2023-03-19T23:28:35.304Z,29.77
2023-03-19T23:31:05.498Z,32.70
2023-03-19T23:33:32.425Z,29.33
2023-03-19T23:35:59.908Z,28.63
2023-03-19T23:38:26.868Z,24.90
2023-03-19T23:40:54.078Z,28.13
2023-03-19T23:43:24.416Z,25.57
2023-03-19T23:45:52.905Z,24.90
2023-03-19T23:48:35.450Z,24.60
2023-03-19T23:51:02.428Z,15.67
2023-03-19T23:53:30.479Z,16.20
2023-03-19T23:55:58.847Z,17.13
2023-03-19T23:58:43.170Z,19.60
